createdAt,value
2017-10-27T00:00:22.545Z,61.45
2017-10-27T00:01:22.700Z,61.45
2017-10-27T00:02:22.605Z,61.55
2017-10-27T00:03:22.655Z,61.55
2017-10-27T00:04:22.921Z,61.55
2017-10-27T00:05:22.716Z,61.55
2017-10-27T00:06:22.736Z,61.55
2017-10-27T00:07:22.864Z,61.45
2017-10-27T00:08:22.809Z,61.45
2017-10-27T00:09:22.874Z,61.65
2017-10-27T00:10:23.126Z,61.65
2017-10-27T00:11:22.911Z,61.65
2017-10-27T00:12:22.937Z,61.65
2017-10-27T00:13:22.971Z,61.65
2017-10-27T00:14:22.982Z,61.65
2017-10-27T00:15:23.020Z,61.65
2017-10-27T00:16:23.373Z,61.65
2017-10-27T00:17:23.082Z,61.65
2017-10-27T00:18:23.131Z,61.65
2017-10-27T00:19:23.362Z,61.45
2017-10-27T00:20:23.208Z,61.45
2017-10-27T00:21:23.205Z,61.55
2017-10-27T00:22:23.505Z,61.65
2017-10-27T00:23:23.287Z,61.25
2017-10-27T00:24:23.321Z,61.35
2017-10-27T00:25:23.400Z,61.65
2017-10-27T00:26:23.376Z,61.45
2017-10-27T00:27:23.408Z,61.65
2017-10-27T00:28:23.692Z,61.65
2017-10-27T00:29:23.477Z,61.35
2017-10-27T00:30:23.493Z,61.55
2017-10-27T00:31:23.540Z,61.55
2017-10-27T00:32:23.553Z,61.93
2017-10-27T00:33:23.608Z,61.74
2017-10-27T00:34:23.619Z,61.83
2017-10-27T00:35:23.977Z,61.55
2017-10-27T00:36:23.694Z,61.35
2017-10-27T00:37:23.712Z,61.25
2017-10-27T00:38:23.746Z,61.65
2017-10-27T00:39:23.787Z,61.65
2017-10-27T00:40:24.014Z,61.65
2017-10-27T00:41:23.859Z,61.83
2017-10-27T00:42:24.125Z,61.65
2017-10-27T00:43:23.919Z,61.45
2017-10-27T00:44:23.930Z,61.65
2017-10-27T00:45:23.981Z,61.65
2017-10-27T00:46:24.041Z,61.74
2017-10-27T00:47:24.025Z,61.74
2017-10-27T00:48:24.074Z,61.65
2017-10-27T00:49:24.441Z,61.35
2017-10-27T00:50:24.139Z,61.65
2017-10-27T00:51:24.156Z,61.65
2017-10-27T00:52:24.204Z,61.93
2017-10-27T00:53:24.244Z,61.65
2017-10-27T00:54:24.255Z,61.83
2017-10-27T00:55:24.285Z,61.93
2017-10-27T00:56:24.563Z,61.35
2017-10-27T00:57:24.377Z,61.35
2017-10-27T00:58:24.394Z,61.55
2017-10-27T00:59:24.441Z,61.45
2017-10-27T01:00:24.440Z,61.55
2017-10-27T01:01:24.492Z,61.83
2017-10-27T01:02:24.517Z,61.83
2017-10-27T01:03:24.837Z,61.93
2017-10-27T01:04:24.670Z,61.83
2017-10-27T01:05:24.595Z,61.74
2017-10-27T01:06:24.644Z,61.83
2017-10-27T01:07:24.657Z,61.65
2017-10-27T01:08:24.720Z,61.83
2017-10-27T01:09:24.763Z,61.65
2017-10-27T01:10:25.111Z,61.93
2017-10-27T01:11:24.798Z,61.65
2017-10-27T01:12:24.866Z,61.65
2017-10-27T01:13:24.850Z,61.74
2017-10-27T01:14:24.905Z,61.83
2017-10-27T01:15:24.916Z,61.93
2017-10-27T01:16:25.095Z,61.93
2017-10-27T01:17:25.268Z,61.93
2017-10-27T01:18:25.018Z,61.93
2017-10-27T01:19:25.058Z,61.65
2017-10-27T01:20:25.072Z,61.65
2017-10-27T01:21:25.098Z,61.83
2017-10-27T01:22:25.165Z,61.83
2017-10-27T01:23:25.172Z,62.22
2017-10-27T01:24:25.449Z,61.93
2017-10-27T01:25:25.290Z,61.65
2017-10-27T01:26:25.276Z,61.93
2017-10-27T01:27:25.306Z,61.83
2017-10-27T01:28:25.349Z,61.83
2017-10-27T01:29:25.352Z,61.83
2017-10-27T01:30:25.403Z,61.83
2017-10-27T01:31:25.666Z,61.74
2017-10-27T01:32:25.474Z,61.83
2017-10-27T01:33:25.479Z,62.22
2017-10-27T01:34:25.512Z,61.93
2017-10-27T01:35:25.541Z,62.32
2017-10-27T01:36:25.574Z,62.32
2017-10-27T01:37:25.611Z,62.22
2017-10-27T01:38:25.956Z,62.22
2017-10-27T01:39:25.674Z,61.65
2017-10-27T01:40:25.717Z,62.12
2017-10-27T01:41:25.740Z,62.22
2017-10-27T01:42:25.771Z,61.74
2017-10-27T01:43:25.811Z,61.74
2017-10-27T01:44:25.897Z,61.83
2017-10-27T01:45:26.186Z,62.32
2017-10-27T01:46:25.920Z,62.12
2017-10-27T01:47:25.939Z,62.22
2017-10-27T01:48:25.955Z,62.12
2017-10-27T01:49:26.000Z,62.32
2017-10-27T01:50:26.013Z,62.22
2017-10-27T01:51:26.047Z,62.22
2017-10-27T01:52:26.327Z,62.22
2017-10-27T01:53:26.131Z,62.32
2017-10-27T01:54:26.139Z,62.32
2017-10-27T01:55:26.193Z,62.41
2017-10-27T01:56:26.222Z,62.32
2017-10-27T01:57:26.326Z,62.32
2017-10-27T01:58:26.607Z,62.12
2017-10-27T01:59:26.303Z,62.32
2017-10-27T02:00:26.337Z,62.12
2017-10-27T02:01:26.437Z,62.41
2017-10-27T02:02:26.419Z,62.22
2017-10-27T02:03:26.671Z,62.32
2017-10-27T02:04:26.752Z,62.12
2017-10-27T02:05:26.505Z,62.41
2017-10-27T02:06:26.516Z,62.22
2017-10-27T02:07:26.569Z,62.12
2017-10-27T02:08:26.586Z,62.32
2017-10-27T02:09:26.723Z,62.32
2017-10-27T02:10:26.892Z,62.41
2017-10-27T02:11:26.679Z,62.41
2017-10-27T02:12:26.706Z,62.03
2017-10-27T02:13:26.747Z,62.03
2017-10-27T02:14:26.786Z,62.32
2017-10-27T02:15:26.800Z,62.03
2017-10-27T02:16:27.123Z,62.41
2017-10-27T02:17:26.883Z,62.12
2017-10-27T02:18:26.895Z,62.22
2017-10-27T02:19:26.927Z,62.22
2017-10-27T02:20:26.979Z,62.12
2017-10-27T02:21:27.044Z,62.12
2017-10-27T02:22:27.324Z,62.12
2017-10-27T02:23:27.077Z,62.12
2017-10-27T02:24:27.089Z,62.12
2017-10-27T02:25:27.117Z,62.12
2017-10-27T02:26:27.171Z,62.12
2017-10-27T02:27:27.182Z,61.83
2017-10-27T02:28:27.476Z,62.22
2017-10-27T02:29:27.241Z,62.32
2017-10-27T02:30:27.269Z,62.22
2017-10-27T02:31:27.321Z,62.12
2017-10-27T02:32:27.443Z,62.22
2017-10-27T02:33:27.382Z,62.12
2017-10-27T02:34:27.667Z,62.12
2017-10-27T02:35:27.446Z,62.22
2017-10-27T02:36:27.485Z,62.12
2017-10-27T02:37:27.534Z,62.22
2017-10-27T02:38:27.607Z,61.83
2017-10-27T02:39:27.556Z,61.83
2017-10-27T02:40:27.859Z,62.09
2017-10-27T02:41:27.635Z,61.93
2017-10-27T02:42:27.757Z,61.93
2017-10-27T02:43:27.690Z,62.00
2017-10-27T02:44:27.747Z,62.03
2017-10-27T02:45:27.746Z,62.12
2017-10-27T02:46:28.023Z,62.32
2017-10-27T02:47:27.823Z,62.32
2017-10-27T02:48:27.854Z,62.12
2017-10-27T02:49:27.886Z,62.12
2017-10-27T02:50:27.923Z,62.19
2017-10-27T02:51:27.950Z,62.03
2017-10-27T02:52:28.286Z,61.80
2017-10-27T02:53:28.004Z,62.38
2017-10-27T02:54:28.045Z,62.19
2017-10-27T02:55:28.059Z,62.29
2017-10-27T02:56:28.105Z,62.12
2017-10-27T02:57:28.131Z,62.09
2017-10-27T02:58:28.471Z,62.12
2017-10-27T02:59:28.189Z,62.09
2017-10-27T03:00:28.216Z,61.93
2017-10-27T03:01:28.248Z,61.83
2017-10-27T03:02:28.305Z,62.00
2017-10-27T03:03:28.324Z,62.12
2017-10-27T03:04:28.656Z,61.90
2017-10-27T03:05:28.393Z,62.09
2017-10-27T03:06:28.405Z,62.48
2017-10-27T03:07:28.456Z,62.12
2017-10-27T03:08:28.482Z,62.00
2017-10-27T03:09:28.526Z,62.12
2017-10-27T03:10:28.600Z,62.29
2017-10-27T03:11:28.883Z,62.00
2017-10-27T03:12:28.610Z,62.57
2017-10-27T03:13:28.646Z,62.32
2017-10-27T03:14:28.669Z,62.38
2017-10-27T03:15:28.852Z,62.41
2017-10-27T03:16:28.737Z,62.09
2017-10-27T03:17:28.753Z,62.51
2017-10-27T03:18:29.051Z,62.09
2017-10-27T03:19:28.837Z,62.38
2017-10-27T03:20:28.852Z,62.09
2017-10-27T03:21:28.925Z,62.22
2017-10-27T03:22:28.941Z,62.29
2017-10-27T03:23:28.955Z,62.09
2017-10-27T03:24:28.985Z,62.48
2017-10-27T03:25:29.326Z,62.09
2017-10-27T03:26:29.032Z,62.29
2017-10-27T03:27:29.087Z,62.38
2017-10-27T03:28:29.100Z,62.09
2017-10-27T03:29:29.145Z,62.22
2017-10-27T03:30:29.177Z,62.48
2017-10-27T03:31:29.229Z,62.32
2017-10-27T03:32:29.601Z,62.00
2017-10-27T03:33:29.295Z,62.29
2017-10-27T03:34:29.313Z,62.48
2017-10-27T03:35:29.331Z,62.48
2017-10-27T03:36:29.350Z,62.00
2017-10-27T03:37:29.396Z,62.38
2017-10-27T03:38:29.428Z,62.09
2017-10-27T03:39:29.692Z,62.48
2017-10-27T03:40:29.470Z,62.38
2017-10-27T03:41:29.506Z,62.19
2017-10-27T03:42:29.535Z,62.38
2017-10-27T03:43:29.621Z,62.32
2017-10-27T03:44:29.597Z,62.38
2017-10-27T03:45:29.627Z,62.38
2017-10-27T03:46:29.919Z,62.48
2017-10-27T03:47:29.698Z,62.38
2017-10-27T03:48:29.728Z,62.57
2017-10-27T03:49:29.768Z,62.19
2017-10-27T03:50:29.792Z,62.48
2017-10-27T03:51:29.817Z,62.38
2017-10-27T03:52:29.868Z,62.38
2017-10-27T03:53:30.203Z,62.38
2017-10-27T03:54:29.921Z,62.57
2017-10-27T03:55:29.957Z,62.19
2017-10-27T03:56:29.993Z,62.48
2017-10-27T03:57:30.031Z,62.19
2017-10-27T03:58:30.055Z,62.32
2017-10-27T03:59:30.075Z,62.09
2017-10-27T04:00:30.442Z,62.48
2017-10-27T04:01:30.146Z,62.19
2017-10-27T04:02:30.158Z,62.19
2017-10-27T04:03:30.216Z,62.19
2017-10-27T04:04:30.269Z,62.32
2017-10-27T04:05:30.341Z,62.51
2017-10-27T04:06:30.403Z,62.19
2017-10-27T04:07:30.570Z,62.38
2017-10-27T04:08:30.396Z,62.29
2017-10-27T04:09:30.399Z,62.38
2017-10-27T04:10:30.413Z,62.19
2017-10-27T04:11:30.450Z,62.48
2017-10-27T04:12:30.497Z,62.38
2017-10-27T04:13:30.524Z,62.48
2017-10-27T04:14:30.789Z,62.38
2017-10-27T04:15:30.590Z,62.29
2017-10-27T04:16:30.625Z,62.38
2017-10-27T04:17:30.658Z,62.57
2017-10-27T04:18:30.674Z,62.38
2017-10-27T04:19:30.693Z,62.19
2017-10-27T04:20:30.746Z,62.38
2017-10-27T04:21:31.096Z,62.48
2017-10-27T04:22:30.839Z,62.57
2017-10-27T04:23:30.855Z,62.38
2017-10-27T04:24:30.853Z,62.57
2017-10-27T04:25:30.901Z,62.57
2017-10-27T04:26:30.930Z,62.38
2017-10-27T04:27:31.274Z,62.57
2017-10-27T04:28:30.994Z,62.19
2017-10-27T04:29:31.027Z,62.67
2017-10-27T04:30:31.086Z,62.48
2017-10-27T04:31:31.070Z,62.57
2017-10-27T04:32:31.124Z,62.19
2017-10-27T04:33:31.475Z,62.38
2017-10-27T04:34:31.169Z,62.48
2017-10-27T04:35:31.201Z,62.48
2017-10-27T04:36:31.251Z,62.29
2017-10-27T04:37:31.284Z,62.19
2017-10-27T04:38:31.316Z,62.38
2017-10-27T04:39:31.632Z,62.57
2017-10-27T04:40:31.505Z,62.29
2017-10-27T04:41:31.469Z,62.57
2017-10-27T04:42:31.444Z,62.48
2017-10-27T04:43:31.452Z,62.19
2017-10-27T04:44:31.642Z,62.48
2017-10-27T04:45:31.812Z,62.19
2017-10-27T04:46:31.540Z,62.57
2017-10-27T04:47:31.593Z,62.48
2017-10-27T04:48:31.604Z,62.19
2017-10-27T04:49:31.653Z,62.38
2017-10-27T04:50:31.675Z,62.38
2017-10-27T04:51:31.997Z,62.38
2017-10-27T04:52:31.809Z,62.48
2017-10-27T04:53:31.788Z,62.67
2017-10-27T04:54:31.850Z,62.57
2017-10-27T04:55:31.841Z,62.29
2017-10-27T04:56:31.854Z,62.48
2017-10-27T04:57:32.156Z,62.19
2017-10-27T04:58:31.942Z,62.38
2017-10-27T04:59:31.961Z,62.38
2017-10-27T05:00:31.982Z,62.57
2017-10-27T05:01:32.009Z,62.29
2017-10-27T05:02:32.078Z,62.38
2017-10-27T05:03:32.347Z,62.38
2017-10-27T05:04:32.107Z,62.19
2017-10-27T05:05:32.179Z,62.19
2017-10-27T05:06:32.173Z,62.19
2017-10-27T05:07:32.218Z,62.67
2017-10-27T05:08:32.254Z,62.57
2017-10-27T05:09:32.511Z,62.67
2017-10-27T05:10:32.314Z,62.38
2017-10-27T05:11:32.343Z,62.48
2017-10-27T05:12:32.385Z,62.57
2017-10-27T05:13:32.412Z,62.29
2017-10-27T05:14:32.442Z,62.19
2017-10-27T05:15:32.771Z,62.48
2017-10-27T05:16:32.503Z,62.29
2017-10-27T05:17:32.514Z,62.29
2017-10-27T05:18:32.563Z,62.38
2017-10-27T05:19:32.590Z,62.38
2017-10-27T05:20:32.622Z,62.57
2017-10-27T05:21:32.941Z,62.57
2017-10-27T05:22:32.710Z,62.57
2017-10-27T05:23:32.721Z,62.57
2017-10-27T05:24:32.735Z,62.57
2017-10-27T05:25:32.765Z,62.38
2017-10-27T05:26:32.796Z,62.67
2017-10-27T05:27:33.078Z,62.29
2017-10-27T05:28:33.115Z,62.57
2017-10-27T05:29:32.893Z,62.57
2017-10-27T05:30:32.922Z,62.29
2017-10-27T05:31:32.994Z,62.38
2017-10-27T05:32:33.001Z,62.48
2017-10-27T05:33:33.341Z,62.57
2017-10-27T05:34:33.062Z,62.67
2017-10-27T05:35:33.083Z,62.29
2017-10-27T05:36:33.125Z,62.38
2017-10-27T05:37:33.139Z,62.19
2017-10-27T05:38:33.190Z,62.67
2017-10-27T05:39:33.469Z,62.67
2017-10-27T05:40:33.234Z,62.38
2017-10-27T05:41:33.274Z,62.19
2017-10-27T05:42:33.317Z,62.38
2017-10-27T05:43:33.356Z,62.57
2017-10-27T05:44:33.379Z,62.38
2017-10-27T05:45:33.389Z,62.57
2017-10-27T05:46:33.674Z,62.57
2017-10-27T05:47:33.450Z,62.57
2017-10-27T05:48:33.500Z,62.48
2017-10-27T05:49:33.531Z,62.57
2017-10-27T05:50:33.547Z,62.48
2017-10-27T05:51:33.598Z,62.48
2017-10-27T05:52:33.629Z,62.57
2017-10-27T05:53:33.664Z,62.57
2017-10-27T05:54:33.692Z,62.57
2017-10-27T05:55:33.747Z,62.77
2017-10-27T05:56:33.736Z,62.38
2017-10-27T05:57:33.783Z,62.38
2017-10-27T05:58:33.813Z,62.38
2017-10-27T05:59:34.146Z,62.77
2017-10-27T06:00:33.881Z,62.48
2017-10-27T06:01:33.908Z,62.67
2017-10-27T06:02:33.941Z,62.67
2017-10-27T06:03:33.959Z,62.29
2017-10-27T06:04:33.983Z,62.48
2017-10-27T06:05:34.018Z,62.57
2017-10-27T06:06:34.361Z,62.38
2017-10-27T06:07:34.095Z,62.38
2017-10-27T06:08:34.219Z,62.48
2017-10-27T06:09:34.144Z,62.57
2017-10-27T06:10:34.174Z,62.38
2017-10-27T06:11:34.223Z,62.57
2017-10-27T06:12:34.277Z,62.57
2017-10-27T06:13:34.285Z,62.38
2017-10-27T06:14:34.495Z,62.38
2017-10-27T06:15:34.331Z,62.48
2017-10-27T06:16:34.372Z,62.57
2017-10-27T06:17:34.486Z,62.77
2017-10-27T06:18:34.445Z,62.57
2017-10-27T06:19:34.741Z,62.57
2017-10-27T06:20:34.489Z,62.48
2017-10-27T06:21:34.518Z,62.38
2017-10-27T06:22:34.560Z,62.57
2017-10-27T06:23:34.592Z,62.57
2017-10-27T06:24:34.610Z,62.57
2017-10-27T06:25:34.657Z,62.57
2017-10-27T06:26:35.452Z,62.57
2017-10-27T06:27:34.786Z,62.57
2017-10-27T06:28:34.799Z,62.38
2017-10-27T06:29:35.039Z,62.48
2017-10-27T06:30:34.961Z,62.57
2017-10-27T06:31:34.860Z,62.29
2017-10-27T06:32:34.874Z,62.57
2017-10-27T06:33:35.214Z,62.57
2017-10-27T06:34:34.920Z,62.48
2017-10-27T06:35:34.977Z,62.38
2017-10-27T06:36:35.115Z,62.57
2017-10-27T06:37:35.034Z,62.57
2017-10-27T06:38:35.070Z,62.38
2017-10-27T06:39:35.093Z,62.48
2017-10-27T06:40:35.407Z,62.67
2017-10-27T06:41:35.167Z,62.77
2017-10-27T06:42:35.171Z,62.57
2017-10-27T06:43:35.218Z,62.38
2017-10-27T06:44:35.236Z,62.38
2017-10-27T06:45:35.297Z,62.57
2017-10-27T06:46:35.322Z,62.57
2017-10-27T06:47:35.579Z,62.29
2017-10-27T06:48:35.370Z,62.67
2017-10-27T06:49:35.392Z,62.29
2017-10-27T06:50:35.448Z,62.38
2017-10-27T06:51:35.481Z,62.48
2017-10-27T06:52:35.482Z,62.48
2017-10-27T06:53:35.617Z,62.48
2017-10-27T06:54:35.832Z,62.48
2017-10-27T06:55:35.594Z,62.19
2017-10-27T06:56:35.647Z,62.09
2017-10-27T06:57:35.658Z,62.48
2017-10-27T06:58:35.680Z,62.48
2017-10-27T06:59:35.721Z,62.38
2017-10-27T07:00:35.756Z,62.09
2017-10-27T07:01:36.065Z,62.09
2017-10-27T07:02:35.805Z,62.38
2017-10-27T07:03:35.848Z,62.00
2017-10-27T07:04:35.904Z,61.80
2017-10-27T07:05:35.892Z,61.80
2017-10-27T07:06:36.191Z,62.00
2017-10-27T07:07:36.259Z,62.38
2017-10-27T07:08:36.028Z,61.80
2017-10-27T07:09:36.017Z,62.09
2017-10-27T07:10:36.085Z,62.48
2017-10-27T07:11:36.137Z,62.57
2017-10-27T07:12:36.126Z,62.09
2017-10-27T07:13:36.397Z,62.38
2017-10-27T07:14:36.200Z,62.09
2017-10-27T07:15:36.221Z,62.09
2017-10-27T07:16:36.247Z,62.09
2017-10-27T07:17:36.285Z,62.19
2017-10-27T07:18:36.317Z,62.29
2017-10-27T07:19:36.647Z,61.90
2017-10-27T07:20:36.362Z,62.00
2017-10-27T07:21:36.414Z,62.29
2017-10-27T07:22:36.422Z,61.90
2017-10-27T07:23:36.476Z,62.00
2017-10-27T07:24:36.491Z,61.71
2017-10-27T07:25:36.772Z,62.00
2017-10-27T07:26:36.549Z,61.80
2017-10-27T07:27:36.601Z,61.80
2017-10-27T07:28:36.631Z,62.29
2017-10-27T07:29:36.742Z,62.19
2017-10-27T07:30:36.672Z,61.80
2017-10-27T07:31:37.024Z,62.09
2017-10-27T07:32:36.753Z,62.29
2017-10-27T07:33:36.769Z,62.09
2017-10-27T07:34:36.815Z,62.09
2017-10-27T07:35:36.831Z,61.90
2017-10-27T07:36:36.880Z,62.09
2017-10-27T07:37:37.196Z,61.80
2017-10-27T07:38:36.928Z,61.90
2017-10-27T07:39:36.954Z,61.90
2017-10-27T07:40:37.004Z,61.61
2017-10-27T07:41:37.018Z,61.52
2017-10-27T07:42:37.065Z,61.90
2017-10-27T07:43:37.405Z,61.80
2017-10-27T07:44:37.115Z,61.42
2017-10-27T07:45:37.143Z,61.42
2017-10-27T07:46:37.191Z,61.52
2017-10-27T07:47:37.205Z,61.61
2017-10-27T07:48:37.237Z,61.52
2017-10-27T07:49:37.589Z,61.32
2017-10-27T07:50:37.304Z,61.83
2017-10-27T07:51:37.365Z,61.71
2017-10-27T07:52:37.367Z,61.52
2017-10-27T07:53:37.417Z,61.71
2017-10-27T07:54:37.501Z,61.71
2017-10-27T07:55:37.723Z,61.71
2017-10-27T07:56:37.509Z,61.42
2017-10-27T07:57:37.540Z,61.61
2017-10-27T07:58:37.549Z,61.32
2017-10-27T07:59:37.659Z,61.13
2017-10-27T08:00:37.631Z,61.61
2017-10-27T08:01:37.994Z,61.42
2017-10-27T08:02:37.680Z,61.55
2017-10-27T08:03:37.791Z,61.16
2017-10-27T08:04:37.755Z,60.97
2017-10-27T08:05:37.830Z,60.87
2017-10-27T08:06:37.806Z,61.42
2017-10-27T08:07:38.120Z,61.07
2017-10-27T08:08:37.870Z,61.16
2017-10-27T08:09:37.897Z,61.07
2017-10-27T08:10:37.935Z,61.16
2017-10-27T08:11:37.959Z,61.25
2017-10-27T08:12:37.990Z,60.58
2017-10-27T08:13:38.296Z,60.49
2017-10-27T08:14:38.054Z,61.25
2017-10-27T08:15:38.121Z,60.87
2017-10-27T08:16:38.138Z,60.87
2017-10-27T08:17:38.157Z,60.97
2017-10-27T08:18:38.180Z,60.87
2017-10-27T08:19:38.215Z,60.87
2017-10-27T08:20:38.513Z,61.35
2017-10-27T08:21:38.325Z,61.16
2017-10-27T08:22:38.331Z,60.68
2017-10-27T08:23:38.344Z,60.97
2017-10-27T08:24:38.404Z,60.68
2017-10-27T08:25:38.437Z,60.97
2017-10-27T08:26:38.447Z,60.20
2017-10-27T08:27:38.764Z,60.58
2017-10-27T08:28:38.511Z,60.77
2017-10-27T08:29:38.552Z,60.68
2017-10-27T08:30:38.582Z,60.30
2017-10-27T08:31:38.765Z,60.58
2017-10-27T08:32:38.624Z,60.10
2017-10-27T08:33:38.690Z,60.30
2017-10-27T08:34:39.132Z,60.30
2017-10-27T08:35:38.734Z,60.58
2017-10-27T08:36:38.746Z,60.77
2017-10-27T08:37:38.777Z,60.20
2017-10-27T08:38:38.811Z,60.20
2017-10-27T08:39:38.855Z,60.39
2017-10-27T08:40:38.889Z,60.39
2017-10-27T08:41:39.170Z,60.39
2017-10-27T08:42:38.939Z,60.58
2017-10-27T08:43:38.981Z,59.91
2017-10-27T08:44:39.002Z,59.81
2017-10-27T08:45:39.033Z,60.39
2017-10-27T08:46:39.076Z,60.30
2017-10-27T08:47:39.112Z,60.00
2017-10-27T08:48:39.390Z,60.39
2017-10-27T08:49:39.155Z,60.10
2017-10-27T08:50:39.194Z,60.49
2017-10-27T08:51:39.235Z,60.00
2017-10-27T08:52:39.284Z,60.20
2017-10-27T08:53:39.305Z,60.20
2017-10-27T08:54:39.365Z,60.20
2017-10-27T08:55:39.636Z,60.10
2017-10-27T08:56:39.382Z,60.00
2017-10-27T08:57:39.427Z,59.91
2017-10-27T08:58:39.477Z,60.39
2017-10-27T08:59:39.473Z,60.10
2017-10-27T09:00:39.515Z,60.30
2017-10-27T09:01:39.535Z,59.91
2017-10-27T09:02:39.852Z,59.72
2017-10-27T09:03:39.599Z,59.91
2017-10-27T09:04:39.647Z,59.62
2017-10-27T09:05:39.681Z,59.72
2017-10-27T09:06:39.716Z,59.91
2017-10-27T09:07:39.731Z,59.23
2017-10-27T09:08:39.880Z,59.33
2017-10-27T09:09:39.808Z,59.91
2017-10-27T09:10:39.846Z,59.81
2017-10-27T09:11:39.853Z,59.33
2017-10-27T09:12:39.886Z,59.43
2017-10-27T09:13:39.917Z,59.33
2017-10-27T09:14:39.975Z,59.23
2017-10-27T09:15:40.295Z,59.43
2017-10-27T09:16:40.030Z,59.33
2017-10-27T09:17:40.049Z,59.33
2017-10-27T09:18:40.180Z,59.33
2017-10-27T09:19:40.106Z,59.62
2017-10-27T09:20:40.153Z,59.43
2017-10-27T09:21:40.187Z,59.33
2017-10-27T09:22:40.498Z,59.23
2017-10-27T09:23:40.284Z,59.04
2017-10-27T09:24:40.264Z,59.04
2017-10-27T09:25:40.293Z,58.95
2017-10-27T09:26:40.325Z,59.72
2017-10-27T09:27:40.386Z,59.04
2017-10-27T09:28:40.407Z,59.04
2017-10-27T09:29:40.687Z,59.43
2017-10-27T09:30:40.481Z,59.33
2017-10-27T09:31:40.489Z,59.04
2017-10-27T09:32:40.522Z,58.65
2017-10-27T09:33:40.714Z,59.43
2017-10-27T09:34:40.579Z,59.04
2017-10-27T09:35:40.636Z,58.75
2017-10-27T09:36:40.895Z,58.37
2017-10-27T09:37:40.679Z,58.78
2017-10-27T09:38:40.726Z,58.65
2017-10-27T09:39:40.755Z,58.65
2017-10-27T09:40:40.787Z,58.56
2017-10-27T09:41:40.805Z,58.69
2017-10-27T09:42:41.083Z,58.78
2017-10-27T09:43:40.867Z,58.49
2017-10-27T09:44:40.899Z,58.30
2017-10-27T09:45:40.932Z,58.30
2017-10-27T09:46:40.962Z,58.69
2017-10-27T09:47:41.025Z,59.27
2017-10-27T09:48:41.310Z,59.07
2017-10-27T09:49:41.058Z,58.59
2017-10-27T09:50:41.108Z,58.11
2017-10-27T09:51:41.137Z,58.11
2017-10-27T09:52:41.153Z,58.01
2017-10-27T09:53:41.184Z,58.49
2017-10-27T09:54:41.467Z,57.92
2017-10-27T09:55:41.260Z,57.53
2017-10-27T09:56:41.299Z,57.72
2017-10-27T09:57:41.328Z,58.40
2017-10-27T09:58:41.411Z,58.30
2017-10-27T09:59:41.379Z,57.53
2017-10-27T10:00:41.659Z,58.01
2017-10-27T10:01:41.459Z,57.72
2017-10-27T10:02:41.477Z,57.82
2017-10-27T10:03:41.526Z,57.53
2017-10-27T10:04:41.556Z,57.72
2017-10-27T10:05:41.642Z,57.72
2017-10-27T10:06:41.919Z,57.72
2017-10-27T10:07:41.639Z,57.62
2017-10-27T10:08:41.672Z,57.43
2017-10-27T10:09:41.697Z,57.82
2017-10-27T10:10:41.727Z,57.72
2017-10-27T10:11:41.828Z,57.72
2017-10-27T10:12:42.119Z,57.62
2017-10-27T10:13:41.929Z,57.43
2017-10-27T10:14:41.892Z,57.43
2017-10-27T10:15:41.906Z,57.43
2017-10-27T10:16:41.945Z,57.05
2017-10-27T10:17:42.056Z,57.62
2017-10-27T10:18:42.307Z,57.72
2017-10-27T10:19:42.043Z,57.82
2017-10-27T10:20:42.051Z,57.34
2017-10-27T10:21:42.110Z,57.05
2017-10-27T10:22:42.111Z,57.14
2017-10-27T10:23:42.144Z,57.14
2017-10-27T10:24:42.496Z,57.43
2017-10-27T10:25:42.212Z,57.43
2017-10-27T10:26:42.248Z,57.34
2017-10-27T10:27:42.278Z,57.24
2017-10-27T10:28:42.309Z,56.95
2017-10-27T10:29:42.367Z,56.95
2017-10-27T10:30:42.638Z,56.95
2017-10-27T10:31:42.401Z,56.95
2017-10-27T10:32:42.450Z,57.14
2017-10-27T10:33:42.488Z,57.05
2017-10-27T10:34:42.507Z,57.34
2017-10-27T10:35:42.550Z,57.24
2017-10-27T10:36:42.831Z,57.43
2017-10-27T10:37:42.616Z,56.85
2017-10-27T10:38:42.647Z,57.14
2017-10-27T10:39:42.680Z,56.85
2017-10-27T10:40:42.708Z,57.14
2017-10-27T10:41:42.745Z,57.14
2017-10-27T10:42:43.077Z,56.57
2017-10-27T10:43:42.804Z,56.66
2017-10-27T10:44:42.838Z,57.14
2017-10-27T10:45:42.872Z,57.43
2017-10-27T10:46:42.900Z,57.34
2017-10-27T10:47:42.937Z,56.76
2017-10-27T10:48:43.254Z,56.85
2017-10-27T10:49:42.996Z,56.85
2017-10-27T10:50:43.275Z,56.76
2017-10-27T10:51:43.056Z,56.95
2017-10-27T10:52:43.097Z,56.85
2017-10-27T10:53:43.132Z,56.69
2017-10-27T10:54:43.145Z,56.69
2017-10-27T10:55:43.513Z,56.76
2017-10-27T10:56:43.271Z,57.14
2017-10-27T10:57:43.272Z,56.57
2017-10-27T10:58:43.289Z,56.57
2017-10-27T10:59:43.330Z,56.85
2017-10-27T11:00:43.351Z,56.85
2017-10-27T11:01:43.371Z,57.14
2017-10-27T11:02:43.713Z,56.66
2017-10-27T11:03:43.432Z,56.95
2017-10-27T11:04:43.470Z,56.88
2017-10-27T11:05:43.510Z,56.59
2017-10-27T11:06:43.532Z,56.85
2017-10-27T11:07:43.614Z,57.05
2017-10-27T11:08:43.819Z,57.14
2017-10-27T11:09:43.879Z,56.95
2017-10-27T11:10:43.724Z,56.98
2017-10-27T11:11:43.693Z,57.17
2017-10-27T11:12:44.046Z,56.98
2017-10-27T11:13:43.754Z,56.79
2017-10-27T11:14:45.976Z,56.76
2017-10-27T11:15:43.861Z,57.05
2017-10-27T11:16:44.117Z,56.69
2017-10-27T11:17:43.921Z,56.79
2017-10-27T11:18:43.911Z,56.30
2017-10-27T11:20:44.691Z,56.88
2017-10-27T11:22:44.312Z,56.69
2017-10-27T11:23:44.230Z,57.07
2017-10-27T11:24:44.112Z,56.69
2017-10-27T11:25:44.148Z,56.49
2017-10-27T11:26:44.187Z,56.27
2017-10-27T11:27:44.211Z,56.30
2017-10-27T11:28:44.251Z,56.69
2017-10-27T11:29:44.598Z,56.59
2017-10-27T11:30:44.319Z,56.49
2017-10-27T11:31:44.366Z,56.95
2017-10-27T11:32:44.384Z,56.11
2017-10-27T11:33:44.407Z,56.21
2017-10-27T11:34:44.453Z,56.11
2017-10-27T11:35:44.481Z,56.30
2017-10-27T11:36:44.748Z,56.59
2017-10-27T11:37:44.544Z,56.30
2017-10-27T11:38:44.574Z,56.11
2017-10-27T11:39:44.611Z,55.82
2017-10-27T11:40:44.641Z,55.73
2017-10-27T11:41:44.659Z,56.21
2017-10-27T11:42:44.739Z,56.01
2017-10-27T11:43:45.404Z,56.11
2017-10-27T11:44:44.775Z,56.01
2017-10-27T11:45:44.813Z,56.21
2017-10-27T11:46:44.827Z,56.30
2017-10-27T11:47:44.888Z,56.11
2017-10-27T11:48:44.892Z,56.21
2017-10-27T11:49:44.918Z,56.40
2017-10-27T11:50:45.207Z,55.73
2017-10-27T11:51:44.987Z,56.11
2017-10-27T11:52:45.032Z,56.49
2017-10-27T11:53:45.063Z,56.59
2017-10-27T11:54:45.077Z,55.73
2017-10-27T11:55:45.133Z,56.01
2017-10-27T11:56:45.166Z,56.01
2017-10-27T11:57:45.483Z,56.30
2017-10-27T11:58:45.223Z,56.21
2017-10-27T11:59:45.242Z,56.11
2017-10-27T12:00:45.288Z,55.92
2017-10-27T12:01:45.318Z,56.21
2017-10-27T12:02:45.356Z,56.59
2017-10-27T12:03:45.371Z,56.30
2017-10-27T12:04:45.738Z,56.30
2017-10-27T12:05:45.441Z,56.11
2017-10-27T12:06:45.487Z,55.92
2017-10-27T12:07:45.506Z,56.21
2017-10-27T12:08:45.549Z,56.30
2017-10-27T12:09:45.589Z,55.92
2017-10-27T12:10:45.636Z,56.01
2017-10-27T12:11:46.005Z,56.11
2017-10-27T12:12:45.683Z,56.11
2017-10-27T12:13:45.695Z,56.01
2017-10-27T12:14:45.745Z,55.63
2017-10-27T12:15:45.777Z,55.54
2017-10-27T12:16:45.791Z,55.63
2017-10-27T12:17:46.190Z,55.54
2017-10-27T12:18:45.862Z,55.54
2017-10-27T12:19:45.907Z,55.54
2017-10-27T12:20:45.925Z,56.40
2017-10-27T12:21:45.977Z,56.59
2017-10-27T12:22:45.989Z,56.21
2017-10-27T12:23:46.339Z,56.21
2017-10-27T12:24:46.057Z,56.11
2017-10-27T12:25:46.105Z,56.21
2017-10-27T12:26:46.287Z,56.59
2017-10-27T12:27:46.151Z,56.49
2017-10-27T12:28:46.190Z,57.07
2017-10-27T12:29:46.537Z,56.11
2017-10-27T12:30:46.267Z,56.11
2017-10-27T12:31:46.276Z,56.49
2017-10-27T12:32:46.317Z,56.40
2017-10-27T12:33:46.352Z,57.07
2017-10-27T12:34:46.400Z,56.79
2017-10-27T12:35:46.662Z,56.88
2017-10-27T12:36:46.443Z,57.07
2017-10-27T12:37:46.489Z,56.98
2017-10-27T12:38:46.501Z,56.49
2017-10-27T12:39:46.543Z,56.59
2017-10-27T12:40:46.567Z,55.82
2017-10-27T12:41:46.877Z,56.79
2017-10-27T12:42:46.659Z,56.98
2017-10-27T12:43:46.666Z,56.59
2017-10-27T12:44:46.699Z,56.59
2017-10-27T12:45:46.925Z,56.98
2017-10-27T12:46:46.789Z,56.59
2017-10-27T12:47:47.111Z,56.79
2017-10-27T12:48:46.828Z,56.79
2017-10-27T12:49:46.876Z,57.17
2017-10-27T12:50:46.909Z,57.17
2017-10-27T12:51:46.962Z,57.07
2017-10-27T12:52:46.958Z,56.98
2017-10-27T12:53:47.312Z,57.07
2017-10-27T12:54:47.024Z,56.69